createdAt,value
2019-06-07T00:02:18.770Z,100088.19
2019-06-07T00:04:46.893Z,100086.78
2019-06-07T00:07:16.965Z,100088.66
2019-06-07T00:09:44.355Z,100092.23
2019-06-07T00:12:14.075Z,100092.59
2019-06-07T00:14:41.806Z,100086.62
2019-06-07T00:17:12.529Z,100086.69
2019-06-07T00:19:39.273Z,100090.00
2019-06-07T00:22:16.595Z,100087.69
2019-06-07T00:24:36.734Z,100087.22
2019-06-07T00:27:04.791Z,100086.72
2019-06-07T00:29:32.560Z,100089.81
2019-06-07T00:32:00.375Z,100071.89
2019-06-07T00:34:28.262Z,100073.63
2019-06-07T00:36:56.187Z,100080.67
2019-06-07T00:39:25.973Z,100070.48
2019-06-07T00:41:53.616Z,100057.69
2019-06-07T00:44:23.189Z,100063.25
2019-06-07T00:46:51.072Z,100056.94
2019-06-07T00:49:33.437Z,100057.92
2019-06-07T00:51:51.654Z,100056.47
2019-06-07T00:54:21.499Z,100051.67
2019-06-07T00:56:47.897Z,100048.83
2019-06-07T00:59:18.576Z,100044.88
2019-06-07T01:01:45.354Z,100037.81
2019-06-07T01:04:15.610Z,100038.20
2019-06-07T01:06:42.793Z,100034.28
2019-06-07T01:09:10.604Z,100031.20
2019-06-07T01:11:38.362Z,100031.95
2019-06-07T01:14:06.173Z,100041.20
2019-06-07T01:16:55.447Z,100038.34
2019-06-07T01:19:04.444Z,100034.15
2019-06-07T01:21:32.270Z,100032.91
2019-06-07T01:24:11.473Z,100031.11
2019-06-07T01:26:30.542Z,100029.30
2019-06-07T01:28:58.453Z,100027.41
2019-06-07T01:31:28.516Z,100033.42
2019-06-07T01:33:55.930Z,100031.03
2019-06-07T01:36:27.500Z,100036.09
2019-06-07T01:38:53.388Z,100032.23
2019-06-07T01:41:23.659Z,100028.70
2019-06-07T01:43:50.885Z,100025.18
2019-06-07T01:46:20.598Z,100028.30
2019-06-07T01:48:49.800Z,100028.78
2019-06-07T01:51:18.932Z,100024.61
2019-06-07T01:53:47.676Z,100025.89
2019-06-07T01:56:18.390Z,100030.73
2019-06-07T01:58:45.212Z,100023.78
2019-06-07T02:01:13.013Z,100024.91
2019-06-07T02:03:40.786Z,100030.81
2019-06-07T02:06:10.415Z,100035.27
2019-06-07T02:08:38.242Z,100023.53
2019-06-07T02:11:06.045Z,100025.44
2019-06-07T02:13:33.833Z,100028.44
2019-06-07T02:16:01.640Z,100024.50
2019-06-07T02:18:34.698Z,100021.46
2019-06-07T02:21:00.973Z,100021.95
2019-06-07T02:23:33.049Z,100025.39
2019-06-07T02:25:58.475Z,100031.53
2019-06-07T02:28:34.642Z,100026.06
2019-06-07T02:30:59.992Z,100026.55
2019-06-07T02:33:29.020Z,100031.31
2019-06-07T02:35:55.469Z,100025.57
2019-06-07T02:38:27.659Z,100019.98
2019-06-07T02:40:52.946Z,100022.88
2019-06-07T02:43:22.086Z,100027.61
2019-06-07T02:45:49.913Z,100020.66
2019-06-07T02:48:17.692Z,100015.09
2019-06-07T02:50:45.657Z,100022.09
2019-06-07T02:53:13.437Z,100009.71
2019-06-07T02:56:32.860Z,100004.67
2019-06-07T02:58:10.974Z,100000.68
2019-06-07T03:01:05.664Z,100002.33
2019-06-07T03:03:17.501Z,100005.98
2019-06-07T03:05:46.068Z,100005.09
2019-06-07T03:08:15.616Z,100000.81
2019-06-07T03:10:46.433Z,99997.28
2019-06-07T03:13:18.797Z,99991.00
2019-06-07T03:15:50.327Z,99990.86
2019-06-07T03:18:41.221Z,99997.32
2019-06-07T03:21:13.239Z,99997.12
2019-06-07T03:23:41.176Z,99995.58
2019-06-07T03:26:08.946Z,99993.67
2019-06-07T03:28:37.954Z,99991.81
2019-06-07T03:31:06.616Z,99983.12
2019-06-07T03:33:41.492Z,99984.29
2019-06-07T03:36:22.669Z,99976.08
2019-06-07T03:38:35.256Z,99978.77
2019-06-07T03:41:04.049Z,99982.41
2019-06-07T03:43:34.963Z,99981.53
2019-06-07T03:46:01.511Z,99986.20
2019-06-07T03:48:30.664Z,99987.17
2019-06-07T03:51:04.578Z,99998.27
2019-06-07T03:53:29.700Z,99994.89
2019-06-07T03:55:58.411Z,99991.03
2019-06-07T03:58:31.959Z,99987.86
2019-06-07T04:00:57.136Z,99989.26
2019-06-07T04:03:36.998Z,99991.72
2019-06-07T04:05:55.252Z,99994.78
2019-06-07T04:08:23.024Z,99993.81
2019-06-07T04:10:59.865Z,99997.95
2019-06-07T04:13:20.534Z,100004.70
2019-06-07T04:15:48.531Z,100002.83
2019-06-07T04:18:16.535Z,99997.52
2019-06-07T04:20:44.368Z,99992.89
2019-06-07T04:23:27.661Z,99995.03
2019-06-07T04:25:42.614Z,99985.92
2019-06-07T04:28:10.747Z,99980.83
2019-06-07T04:30:42.669Z,99985.87
2019-06-07T04:33:11.646Z,99974.42
2019-06-07T04:35:42.540Z,99975.10
2019-06-07T04:38:10.191Z,99967.80
2019-06-07T04:40:39.969Z,99970.34
2019-06-07T04:43:08.223Z,99969.94
2019-06-07T04:45:41.849Z,99971.95
2019-06-07T04:48:06.901Z,99966.97
2019-06-07T04:50:38.278Z,99968.01
2019-06-07T04:53:06.735Z,99971.72
2019-06-07T04:55:36.619Z,99962.27
2019-06-07T04:58:05.047Z,99956.75
2019-06-07T05:00:49.699Z,99954.60
2019-06-07T05:03:04.880Z,99941.92
2019-06-07T05:05:34.549Z,99936.59
2019-06-07T05:08:07.399Z,99939.98
2019-06-07T05:10:35.179Z,99934.27
2019-06-07T05:13:02.770Z,99927.91
2019-06-07T05:15:32.259Z,99932.41
2019-06-07T05:18:00.034Z,99927.67
2019-06-07T05:20:27.869Z,99926.63
2019-06-07T05:22:55.650Z,99925.48
2019-06-07T05:25:23.439Z,99923.58
2019-06-07T05:27:51.257Z,99924.80
2019-06-07T05:33:05.204Z,99913.10
2019-06-07T05:35:33.291Z,99928.73
2019-06-07T05:38:02.614Z,99925.48
2019-06-07T05:40:39.244Z,99914.37
2019-06-07T05:43:07.254Z,99918.09
2019-06-07T05:45:39.285Z,99916.55
2019-06-07T05:48:07.393Z,99925.66
2019-06-07T05:50:44.856Z,99920.25
2019-06-07T05:53:05.964Z,99906.14
2019-06-07T05:55:35.288Z,99900.56
2019-06-07T05:58:03.270Z,99901.92
2019-06-07T06:00:31.383Z,99911.00
2019-06-07T06:03:05.408Z,99909.13
2019-06-07T06:05:34.552Z,99917.50
2019-06-07T06:07:58.596Z,99917.03
2019-06-07T06:10:26.401Z,99916.32
2019-06-07T06:12:54.176Z,99922.07
2019-06-07T06:15:41.587Z,99917.73
2019-06-07T06:17:53.735Z,99914.89
2019-06-07T06:20:22.122Z,99913.48
2019-06-07T06:22:51.139Z,99911.05
2019-06-07T06:25:34.730Z,99914.31
2019-06-07T06:28:09.918Z,99910.41
2019-06-07T06:30:19.355Z,99910.35
2019-06-07T06:32:54.970Z,99903.34
2019-06-07T06:35:18.733Z,99903.58
2019-06-07T06:37:52.737Z,99895.57
2019-06-07T06:40:16.528Z,99895.37
2019-06-07T06:42:45.455Z,99900.32
2019-06-07T06:45:16.349Z,99901.48
2019-06-07T06:47:47.707Z,99907.10
2019-06-07T06:50:13.937Z,99905.16
2019-06-07T06:52:45.133Z,99901.17
2019-06-07T06:55:11.740Z,99905.70
2019-06-07T06:57:41.476Z,99898.05
2019-06-07T07:00:10.491Z,99909.63
2019-06-07T07:03:27.041Z,99907.78
2019-06-07T07:05:09.032Z,99907.92
2019-06-07T07:07:36.811Z,99910.30
2019-06-07T07:10:06.217Z,99903.44
2019-06-07T07:12:33.982Z,99895.22
2019-06-07T07:15:01.803Z,99902.14
2019-06-07T07:17:47.786Z,99898.17
2019-06-07T07:19:59.429Z,99897.62
2019-06-07T07:22:27.208Z,99897.70
2019-06-07T07:24:55.109Z,99884.70
2019-06-07T07:27:22.979Z,99877.48
2019-06-07T07:30:10.217Z,99872.63
2019-06-07T07:32:20.531Z,99870.12
2019-06-07T07:34:51.481Z,99869.25
2019-06-07T07:37:17.974Z,99869.92
2019-06-07T07:39:48.680Z,99861.92
2019-06-07T07:42:21.334Z,99857.25
2019-06-07T07:44:47.188Z,99857.22
2019-06-07T07:47:15.031Z,99854.93
2019-06-07T07:49:44.704Z,99853.33
2019-06-07T07:52:12.464Z,99855.63
2019-06-07T07:54:40.244Z,99841.44
2019-06-07T07:57:08.027Z,99845.06
2019-06-07T07:59:44.013Z,99847.53
2019-06-07T08:02:05.554Z,99840.06
2019-06-07T08:05:12.928Z,99845.52
2019-06-07T08:07:03.165Z,99840.22
2019-06-07T08:09:30.971Z,99826.39
2019-06-07T08:12:00.720Z,99821.45
2019-06-07T08:14:28.470Z,99815.41
2019-06-07T08:16:57.862Z,99812.63
2019-06-07T08:19:25.974Z,99806.30
2019-06-07T08:21:55.674Z,99810.94
2019-06-07T08:24:23.428Z,99805.20
2019-06-07T08:27:13.036Z,99798.06
2019-06-07T08:29:20.975Z,99796.38
2019-06-07T08:31:50.831Z,99791.26
2019-06-07T08:34:18.562Z,99792.75
2019-06-07T08:36:46.348Z,99787.47
2019-06-07T08:39:14.164Z,99784.25
2019-06-07T08:41:54.085Z,99774.50
2019-06-07T08:44:23.206Z,99778.16
2019-06-07T08:46:41.419Z,99766.39
2019-06-07T08:49:09.285Z,99762.37
2019-06-07T08:52:03.012Z,99760.39
2019-06-07T08:54:26.281Z,99764.97
2019-06-07T08:57:06.652Z,99761.63
2019-06-07T08:59:23.849Z,99758.22
2019-06-07T09:01:53.772Z,99760.24
2019-06-07T09:04:21.426Z,99757.64
2019-06-07T09:07:18.123Z,99755.02
2019-06-07T09:09:19.235Z,99764.50
2019-06-07T09:11:47.108Z,99755.11
2019-06-07T09:14:14.893Z,99752.53
2019-06-07T09:16:42.736Z,99751.59
2019-06-07T09:19:11.332Z,99744.78
2019-06-07T09:21:40.380Z,99754.88
2019-06-07T09:24:11.487Z,99753.12
2019-06-07T09:26:37.912Z,99746.02
2019-06-07T09:29:09.443Z,99737.95
2019-06-07T09:31:51.889Z,99733.55
2019-06-07T09:34:13.725Z,99736.63
2019-06-07T09:36:34.884Z,99730.11
2019-06-07T09:39:08.303Z,99730.44
2019-06-07T09:41:47.328Z,99728.60
2019-06-07T09:44:21.326Z,99718.08
2019-06-07T09:46:34.678Z,99715.13
2019-06-07T09:49:18.750Z,99712.39
2019-06-07T09:51:32.294Z,99707.72
2019-06-07T09:54:01.233Z,99704.33
2019-06-07T09:56:29.897Z,99698.10
2019-06-07T09:58:59.488Z,99694.07
2019-06-07T10:01:27.464Z,99694.23
2019-06-07T10:03:55.276Z,99691.01
2019-06-07T10:06:23.085Z,99678.45
2019-06-07T10:11:20.647Z,99661.05
2019-06-07T10:13:48.446Z,99658.77
2019-06-07T10:16:16.277Z,99666.61
2019-06-07T10:18:44.051Z,99659.19
2019-06-07T10:21:15.008Z,99661.95
2019-06-07T10:23:41.924Z,99660.30
2019-06-07T10:26:10.145Z,99657.95
2019-06-07T10:28:38.122Z,99650.06
2019-06-07T10:31:07.799Z,99643.27
2019-06-07T10:33:35.647Z,99642.61
2019-06-07T10:36:04.482Z,99638.09
2019-06-07T10:38:32.371Z,99627.50
2019-06-07T10:41:00.791Z,99628.91
2019-06-07T10:43:28.841Z,99622.45
2019-06-07T10:45:56.607Z,99616.72
2019-06-07T10:48:25.189Z,99611.59
2019-06-07T10:50:53.082Z,99606.03
2019-06-07T10:53:20.906Z,99612.25
2019-06-07T10:55:48.727Z,99602.59
2019-06-07T10:58:16.521Z,99592.57
2019-06-07T11:00:44.303Z,99587.02
2019-06-07T11:03:12.123Z,99580.45
2019-06-07T11:05:41.445Z,99586.72
2019-06-07T11:08:10.271Z,99588.05
2019-06-07T11:10:38.366Z,99578.79
2019-06-07T11:13:06.178Z,99572.66
2019-06-07T11:15:33.993Z,99566.97
2019-06-07T11:18:01.910Z,99566.59
2019-06-07T11:20:29.827Z,99560.41
2019-06-07T11:22:57.598Z,99559.89
2019-06-07T11:25:25.411Z,99563.81
2019-06-07T11:27:53.296Z,99558.59
2019-06-07T11:30:21.143Z,99544.41
2019-06-07T11:32:49.004Z,99551.15
2019-06-07T11:35:17.151Z,99542.44
2019-06-07T11:37:44.957Z,99532.73
2019-06-07T11:40:35.532Z,99532.50
2019-06-07T11:42:42.601Z,99529.34
2019-06-07T11:45:12.715Z,99530.17
2019-06-07T11:47:40.359Z,99533.52
2019-06-07T11:50:11.589Z,99523.80
2019-06-07T11:52:39.829Z,99527.67
2019-06-07T11:55:08.994Z,99521.63
2019-06-07T11:57:37.114Z,99515.22
2019-06-07T12:00:09.376Z,99511.94
2019-06-07T12:02:37.363Z,99504.59
2019-06-07T12:05:05.260Z,99503.84
2019-06-07T12:07:33.058Z,99495.19
2019-06-07T12:10:00.862Z,99485.56
2019-06-07T12:12:28.723Z,99488.00
2019-06-07T12:14:56.471Z,99476.44
2019-06-07T12:17:24.383Z,99474.00
2019-06-07T12:19:55.070Z,99451.82
2019-06-07T12:22:22.909Z,99472.71
2019-06-07T12:24:50.771Z,99466.91
2019-06-07T12:27:18.903Z,99458.51
2019-06-07T12:29:46.673Z,99463.40
2019-06-07T12:32:15.380Z,99450.38
2019-06-07T12:34:43.327Z,99449.39
2019-06-07T12:37:11.771Z,99453.17
2019-06-07T12:39:39.908Z,99453.31
2019-06-07T12:42:07.717Z,99454.86
2019-06-07T12:44:35.480Z,99454.84
2019-06-07T12:47:03.269Z,99455.73
2019-06-07T12:49:31.056Z,99453.80
2019-06-07T12:51:58.879Z,99445.11
2019-06-07T12:54:26.690Z,99448.38
2019-06-07T12:56:54.571Z,99443.78
2019-06-07T12:59:22.784Z,99450.52
2019-06-07T13:01:51.782Z,99442.82
2019-06-07T13:04:20.529Z,99435.03
2019-06-07T13:06:48.414Z,99433.62
2019-06-07T13:09:17.428Z,99443.98
2019-06-07T13:11:45.684Z,99447.12
2019-06-07T13:14:13.495Z,99434.34
2019-06-07T13:16:41.324Z,99437.85
2019-06-07T13:19:09.134Z,99429.48
2019-06-07T13:21:37.057Z,99427.79
2019-06-07T13:24:04.889Z,99425.64
2019-06-07T13:26:35.445Z,99422.45
2019-06-07T13:29:03.781Z,99421.59
2019-06-07T13:31:31.557Z,99417.72
2019-06-07T13:33:59.400Z,99416.62
2019-06-07T13:36:28.260Z,99408.33
2019-06-07T13:38:56.535Z,99407.69
2019-06-07T13:41:36.542Z,99399.70
2019-06-07T13:43:54.058Z,99409.31
2019-06-07T13:46:23.132Z,99390.80
2019-06-07T13:48:51.248Z,99389.66
2019-06-07T13:51:21.174Z,99389.18
2019-06-07T13:53:48.932Z,99374.68
2019-06-07T13:56:17.771Z,99377.41
2019-06-07T13:58:45.806Z,99374.64
2019-06-07T14:01:13.634Z,99352.99
2019-06-07T14:03:41.426Z,99344.39
2019-06-07T14:06:09.259Z,99342.33
2019-06-07T14:08:37.164Z,99325.77
2019-06-07T14:11:05.017Z,99318.43
2019-06-07T14:13:32.829Z,99318.03
2019-06-07T14:16:00.658Z,99310.00
2019-06-07T14:18:28.767Z,99313.00
2019-06-07T14:20:58.921Z,99324.03
2019-06-07T14:23:43.721Z,99322.48
2019-06-07T14:25:56.264Z,99321.64
2019-06-07T14:28:27.718Z,99317.38
2019-06-07T14:30:53.863Z,99321.22
2019-06-07T14:33:23.621Z,99314.63
2019-06-07T14:35:54.795Z,99310.12
2019-06-07T14:38:23.162Z,99308.63
2019-06-07T14:40:50.979Z,99309.68
2019-06-07T14:43:19.167Z,99310.78
2019-06-07T14:45:47.020Z,99305.13
2019-06-07T14:48:14.858Z,99306.30
2019-06-07T14:50:42.690Z,99307.54
2019-06-07T14:53:10.544Z,99303.36
2019-06-07T14:55:38.308Z,99300.58
2019-06-07T14:58:06.146Z,99309.40
2019-06-07T15:00:43.095Z,99311.88
2019-06-07T15:03:11.185Z,99318.41
2019-06-07T15:05:40.505Z,99315.39
2019-06-07T15:08:08.576Z,99319.05
2019-06-07T15:10:36.365Z,99320.38
2019-06-07T15:13:04.333Z,99320.77
2019-06-07T15:15:32.743Z,99319.34
2019-06-07T15:18:00.855Z,99306.27
2019-06-07T15:20:30.301Z,99301.25
2019-06-07T15:22:58.371Z,99298.94
2019-06-07T15:25:27.067Z,99296.86
2019-06-07T15:27:55.056Z,99288.86
2019-06-07T15:30:22.890Z,99279.02
2019-06-07T15:32:50.722Z,99281.84
2019-06-07T15:35:18.506Z,99281.14
2019-06-07T15:37:48.098Z,99288.39
2019-06-07T15:40:16.426Z,99283.36
2019-06-07T15:42:52.369Z,99281.66
2019-06-07T15:45:14.023Z,99287.41
2019-06-07T15:47:41.804Z,99296.74
2019-06-07T15:50:10.520Z,99303.58
2019-06-07T15:52:40.258Z,99309.56
2019-06-07T15:55:09.992Z,99321.45
2019-06-07T15:57:39.325Z,99322.69
2019-06-07T16:00:10.903Z,99311.02
2019-06-07T16:02:39.745Z,99311.84
2019-06-07T16:05:07.850Z,99310.08
2019-06-07T16:07:36.241Z,99304.88
2019-06-07T16:10:05.563Z,99297.91
2019-06-07T16:12:34.536Z,99300.91
2019-06-07T16:15:05.396Z,99311.48
2019-06-07T16:17:33.305Z,99308.73
2019-06-07T16:20:01.131Z,99308.05
2019-06-07T16:22:28.920Z,99296.69
2019-06-07T16:24:56.742Z,99283.98
2019-06-07T16:27:24.586Z,99287.89
2019-06-07T16:29:52.465Z,99284.06
2019-06-07T16:32:20.269Z,99281.20
2019-06-07T16:34:48.170Z,99280.30
2019-06-07T16:37:16.128Z,99280.78
2019-06-07T16:39:44.785Z,99265.59
2019-06-07T16:42:12.816Z,99271.73
2019-06-07T16:44:40.750Z,99284.44
2019-06-07T16:47:08.649Z,99288.52
2019-06-07T16:49:36.756Z,99279.97
2019-06-07T16:52:04.967Z,99265.98
2019-06-07T16:54:35.534Z,99276.86
2019-06-07T16:57:02.587Z,99285.37
2019-06-07T16:59:30.361Z,99264.52
2019-06-07T17:01:58.312Z,99258.65
2019-06-07T17:04:26.227Z,99280.41
2019-06-07T17:06:54.094Z,99309.76
2019-06-07T17:09:21.927Z,99320.98
2019-06-07T17:11:49.965Z,99342.47
2019-06-07T17:14:17.768Z,99343.47
2019-06-07T17:16:46.159Z,99360.02
2019-06-07T17:19:15.293Z,99346.47
2019-06-07T17:21:43.376Z,99356.55
2019-06-07T17:24:11.384Z,99391.70
2019-06-07T17:26:39.445Z,99382.38
2019-06-07T17:29:07.421Z,99379.91
2019-06-07T17:31:35.229Z,99394.85
2019-06-07T17:34:03.044Z,99416.97
2019-06-07T17:36:30.988Z,99424.80
2019-06-07T17:38:58.792Z,99420.01
2019-06-07T17:41:26.653Z,99446.61
2019-06-07T17:43:59.781Z,99501.16
2019-06-07T17:46:24.230Z,99542.86
2019-06-07T17:48:52.065Z,99581.06
2019-06-07T17:51:19.926Z,99593.61
2019-06-07T17:53:47.859Z,99624.14
2019-06-07T17:56:15.679Z,99655.89
2019-06-07T17:58:44.324Z,99609.75
2019-06-07T18:01:12.163Z,99566.59
2019-06-07T18:03:39.980Z,99564.86
2019-06-07T18:06:07.823Z,99567.09
2019-06-07T18:08:35.739Z,99621.64
2019-06-07T18:11:03.577Z,99634.13
2019-06-07T18:13:31.907Z,99634.13
2019-06-07T18:16:00.109Z,99653.09
2019-06-07T18:18:28.223Z,99663.72
2019-06-07T18:20:56.278Z,99705.78
2019-06-07T18:23:24.246Z,99767.11
2019-06-07T18:25:52.596Z,99770.84
2019-06-07T18:28:20.908Z,99658.92
2019-06-07T18:30:48.899Z,99699.11
2019-06-07T18:33:16.991Z,99703.20
2019-06-07T18:35:45.060Z,99683.98
2019-06-07T18:38:12.986Z,99721.15
2019-06-07T18:40:41.483Z,99735.81
2019-06-07T18:43:09.306Z,99741.61
2019-06-07T18:45:37.326Z,99733.33
2019-06-07T18:48:05.667Z,99752.02
2019-06-07T18:50:34.004Z,99771.45
2019-06-07T18:53:01.972Z,99811.45
2019-06-07T18:55:29.737Z,99842.44
2019-06-07T18:57:58.533Z,99815.00
2019-06-07T19:00:28.570Z,99769.58
2019-06-07T19:02:56.380Z,99774.55
2019-06-07T19:05:24.371Z,99767.44
2019-06-07T19:07:52.580Z,99763.98
2019-06-07T19:10:22.638Z,99806.78
2019-06-07T19:12:50.916Z,99809.43
2019-06-07T19:15:21.273Z,99784.67
2019-06-07T19:17:49.761Z,99836.25
2019-06-07T19:20:18.508Z,99823.63
2019-06-07T19:22:46.312Z,99841.63
2019-06-07T19:25:15.381Z,99847.46
2019-06-07T19:27:43.165Z,99845.24
2019-06-07T19:30:13.282Z,99840.95
2019-06-07T19:32:41.106Z,99835.72
2019-06-07T19:35:09.642Z,99841.34
2019-06-07T19:37:37.439Z,99862.00
2019-06-07T19:40:06.627Z,99877.27
2019-06-07T19:42:34.430Z,99884.64
2019-06-07T19:45:27.059Z,99896.37
2019-06-07T19:47:32.082Z,99908.67
2019-06-07T19:50:00.941Z,99922.34
2019-06-07T19:52:28.852Z,99936.97
2019-06-07T19:54:57.589Z,99951.48
2019-06-07T19:57:25.629Z,99967.26
2019-06-07T19:59:53.531Z,99960.63
2019-06-07T20:02:21.365Z,99968.41
2019-06-07T20:04:49.147Z,99979.13
2019-06-07T20:07:16.971Z,99976.67
2019-06-07T20:09:44.794Z,99977.23
2019-06-07T20:12:12.636Z,99987.41
2019-06-07T20:14:40.453Z,99993.05
2019-06-07T20:17:08.217Z,99990.44
2019-06-07T20:19:36.052Z,99977.03
2019-06-07T20:22:05.386Z,99965.13
2019-06-07T20:24:33.569Z,99950.96
2019-06-07T20:27:02.336Z,99951.96
2019-06-07T20:29:30.325Z,99937.09
2019-06-07T20:31:58.302Z,99917.75
2019-06-07T20:34:26.135Z,99911.32
2019-06-07T20:36:54.130Z,99916.61
2019-06-07T20:39:21.972Z,99911.82
2019-06-07T20:41:49.781Z,99920.14
2019-06-07T20:44:17.646Z,99911.39
2019-06-07T20:46:45.455Z,99921.25
2019-06-07T20:49:13.348Z,99906.16
2019-06-07T20:51:41.177Z,99917.64
2019-06-07T20:54:09.197Z,99919.89
2019-06-07T20:56:37.097Z,99941.38
2019-06-07T20:59:05.038Z,99959.58
2019-06-07T21:01:33.056Z,99983.34
2019-06-07T21:04:01.139Z,100017.48
2019-06-07T21:06:29.074Z,100047.81
2019-06-07T21:08:56.966Z,100041.55
2019-06-07T21:11:24.844Z,100053.99
2019-06-07T21:13:52.699Z,100043.84
2019-06-07T21:16:20.525Z,100027.39
2019-06-07T21:18:48.487Z,100023.17
2019-06-07T21:21:16.391Z,100026.08
2019-06-07T21:23:44.292Z,100009.17
2019-06-07T21:26:12.189Z,100050.60
2019-06-07T21:28:40.031Z,100049.46
2019-06-07T21:31:10.456Z,100046.81
2019-06-07T21:33:38.640Z,100063.70
2019-06-07T21:36:07.808Z,100075.38
2019-06-07T21:38:35.780Z,100084.53
2019-06-07T21:41:04.173Z,100083.55
2019-06-07T21:43:32.321Z,100087.20
2019-06-07T21:46:05.510Z,100090.21
2019-06-07T21:48:31.110Z,100092.08
2019-06-07T21:50:58.995Z,100095.38
2019-06-07T21:53:26.827Z,100085.63
2019-06-07T21:55:54.783Z,100059.14
2019-06-07T21:58:24.568Z,100027.98
2019-06-07T22:01:15.238Z,100045.97
2019-06-07T22:03:43.272Z,100040.89
2019-06-07T22:06:11.704Z,100027.83
2019-06-07T22:08:39.864Z,100015.83
2019-06-07T22:11:08.206Z,100013.60
2019-06-07T22:13:36.274Z,100018.28
2019-06-07T22:16:04.172Z,100003.25
2019-06-07T22:18:32.284Z,99988.22
2019-06-07T22:21:00.140Z,99981.73
2019-06-07T22:23:27.976Z,99994.70
2019-06-07T22:25:55.901Z,99996.30
2019-06-07T22:28:23.807Z,99996.70
2019-06-07T22:30:51.678Z,100006.16
2019-06-07T22:33:19.520Z,100021.56
2019-06-07T22:35:47.346Z,100020.67
2019-06-07T22:38:15.170Z,100020.67
2019-06-07T22:40:42.963Z,100021.23
2019-06-07T22:43:11.846Z,100008.94
2019-06-07T22:45:39.904Z,100021.88
2019-06-07T22:48:08.862Z,100033.83
2019-06-07T22:50:36.783Z,100030.85
2019-06-07T22:53:04.597Z,100045.16
2019-06-07T22:55:32.435Z,100046.44
2019-06-07T22:58:00.456Z,100057.98
2019-06-07T23:00:30.081Z,100059.88
2019-06-07T23:02:59.790Z,100057.97
2019-06-07T23:05:27.689Z,100073.22
2019-06-07T23:07:55.490Z,100099.78
2019-06-07T23:10:23.424Z,100093.40
2019-06-07T23:12:51.213Z,100088.08
2019-06-07T23:15:20.758Z,100092.05
2019-06-07T23:17:48.745Z,100097.44
2019-06-07T23:20:18.051Z,100085.34
2019-06-07T23:22:45.996Z,100087.08
2019-06-07T23:25:17.655Z,100093.05
2019-06-07T23:27:45.479Z,100107.52
2019-06-07T23:30:16.520Z,100107.52
2019-06-07T23:32:44.500Z,100119.44
2019-06-07T23:35:14.889Z,100115.77
2019-06-07T23:37:42.759Z,100103.81
2019-06-07T23:40:14.965Z,100100.08
2019-06-07T23:42:43.149Z,100095.67
2019-06-07T23:45:11.998Z,100087.02
2019-06-07T23:47:40.842Z,100086.30
2019-06-07T23:50:09.542Z,100094.61
2019-06-07T23:52:37.338Z,100099.66
2019-06-07T23:55:08.421Z,100089.25
2019-06-07T23:57:36.248Z,100087.42
